PWSweather.com
Personal Weather Stations
Station Observations
WD4JKH
Forsyth, GA 31029

Forsyth, GA 31029

Lat: 33.033225, Lon: -83.927995

Elevation: 709

Station Type: Davis Vantage VUE

High Low Average
Temperature 89.9°F32.2°C 71.3°F21.8°C 79.0°F26.1°C
Dew Point 73.8°F23.2°C 69.3°F20.7°C 71.5°F21.9°C
Winds 7.3 mph 11.7 kmh Calm Calm 1.0 mph SSW1.6 kmh SSW
Wind Gusts 15.0 mph24.1 kmh -- 4.0 mph6.4 kmh
Humidity 97% 53% 79%
Pressure 30.00 in1015.9 mb 29.89 in1012.2 mb -
Precipitation 0.25 in6.4 mm - -
Hour Temp Dew Point Humidity Winds Wind Gusts Pressure Precip Precip Rate Daily Precip Total
12:03 AM 75.5°F24.2°C 71.0°F21.7°C 86% 2.6 mph NE4.2 kmh NE 6.0 mph9.7 kmh 29.96 in1014.6 mb 0.00 in0.0 mm 0.00 in0.0 mm 0.00 in0.0 mm
12:08 AM 75.4°F24.1°C 70.9°F21.6°C 86% 1.9 mph NE3.1 kmh NE 6.0 mph9.7 kmh 29.95 in1014.2 mb 0.00 in0.0 mm 0.00 in0.0 mm 0.00 in0.0 mm
12:13 AM 75.4°F24.1°C 71.3°F21.8°C 87% 1.8 mph NE2.9 kmh NE 6.0 mph9.7 kmh 29.95 in1014.2 mb 0.00 in0.0 mm 0.00 in0.0 mm 0.00 in0.0 mm
12:18 AM 75.1°F23.9°C 71.0°F21.7°C 87% 1.7 mph ENE2.7 kmh ENE 5.0 mph8.0 kmh 29.96 in1014.6 mb 0.00 in0.0 mm 0.00 in0.0 mm 0.00 in0.0 mm
12:23 AM 75.1°F23.9°C 71.0°F21.7°C 87% 1.5 mph ESE2.4 kmh ESE 4.0 mph6.4 kmh 29.96 in1014.6 mb 0.00 in0.0 mm 0.00 in0.0 mm 0.00 in0.0 mm
12:28 AM 75.2°F24.0°C 70.8°F21.6°C 86% 1.8 mph ESE2.9 kmh ESE 4.0 mph6.4 kmh 29.96 in1014.6 mb 0.00 in0.0 mm 0.00 in0.0 mm 0.00 in0.0 mm
12:32 AM 75.2°F24.0°C 70.7°F21.5°C 86% 1.9 mph SE3.1 kmh SE 3.0 mph4.8 kmh 29.97 in1014.9 mb 0.00 in0.0 mm 0.00 in0.0 mm 0.00 in0.0 mm
12:37 AM 75.1°F23.9°C 71.3°F21.8°C 88% 1.0 mph SE1.6 kmh SE 3.0 mph4.8 kmh 29.97 in1014.9 mb 0.00 in0.0 mm 0.00 in0.0 mm 0.00 in0.0 mm
12:42 AM 74.9°F23.8°C 71.1°F21.7°C 88% 1.4 mph SSW2.3 kmh SSW 3.0 mph4.8 kmh 29.97 in1014.9 mb 0.00 in0.0 mm 0.00 in0.0 mm 0.00 in0.0 mm
12:47 AM 74.7°F23.7°C 71.2°F21.8°C 89% 1.5 mph SW2.4 kmh SW 4.0 mph6.4 kmh 29.97 in1014.9 mb 0.00 in0.0 mm 0.00 in0.0 mm 0.00 in0.0 mm
12:52 AM 74.6°F23.7°C 71.5°F21.9°C 90% 1.0 mph SW1.6 kmh SW 4.0 mph6.4 kmh 29.97 in1014.9 mb 0.00 in0.0 mm 0.00 in0.0 mm 0.00 in0.0 mm
12:57 AM 74.5°F23.6°C 71.4°F21.9°C 90% Calm Calm 4.0 mph6.4 kmh 29.97 in1014.9 mb 0.00 in0.0 mm 0.00 in0.0 mm 0.00 in0.0 mm
01:02 AM 74.5°F23.6°C 71.4°F21.9°C 90% 1.0 mph ESE1.6 kmh ESE 4.0 mph6.4 kmh 29.97 in1014.9 mb 0.00 in0.0 mm 0.00 in0.0 mm 0.00 in0.0 mm
01:07 AM 74.5°F23.6°C 71.4°F21.9°C 90% Calm Calm 3.0 mph4.8 kmh 29.97 in1014.9 mb 0.00 in0.0 mm 0.00 in0.0 mm 0.00 in0.0 mm
01:12 AM 74.4°F23.6°C 71.6°F22.0°C 91% Calm Calm 3.0 mph4.8 kmh 29.97 in1014.9 mb 0.00 in0.0 mm 0.00 in0.0 mm 0.00 in0.0 mm
01:17 AM 74.3°F23.5°C 71.5°F21.9°C 91% Calm Calm 3.0 mph4.8 kmh 29.97 in1014.9 mb 0.00 in0.0 mm 0.00 in0.0 mm 0.00 in0.0 mm
01:22 AM 74.2°F23.4°C 71.4°F21.9°C 91% Calm Calm 3.0 mph4.8 kmh 29.97 in1014.9 mb 0.00 in0.0 mm 0.00 in0.0 mm 0.00 in0.0 mm
01:27 AM 74.1°F23.4°C 71.6°F22.0°C 92% 1.4 mph SW2.3 kmh SW 4.0 mph6.4 kmh 29.97 in1014.9 mb 0.00 in0.0 mm 0.00 in0.0 mm 0.00 in0.0 mm
01:32 AM 74.1°F23.4°C 71.6°F22.0°C 92% 1.0 mph SW1.6 kmh SW 4.0 mph6.4 kmh 29.97 in1014.9 mb 0.00 in0.0 mm 0.00 in0.0 mm 0.00 in0.0 mm
01:37 AM 74.0°F23.3°C 71.5°F21.9°C 92% 1.3 mph WSW2.1 kmh WSW 4.0 mph6.4 kmh 29.97 in1014.9 mb 0.00 in0.0 mm 0.00 in0.0 mm 0.00 in0.0 mm
01:42 AM 74.0°F23.3°C 71.5°F21.9°C 92% 2.8 mph WSW4.5 kmh WSW 4.0 mph6.4 kmh 29.97 in1014.9 mb 0.00 in0.0 mm 0.00 in0.0 mm 0.00 in0.0 mm
01:47 AM 73.9°F23.3°C 71.7°F22.1°C 93% 1.6 mph WSW2.6 kmh WSW 4.0 mph6.4 kmh 29.97 in1014.9 mb 0.00 in0.0 mm 0.00 in0.0 mm 0.00 in0.0 mm
01:52 AM 73.8°F23.2°C 71.6°F22.0°C 93% 1.0 mph WSW1.6 kmh WSW 4.0 mph6.4 kmh 29.96 in1014.6 mb 0.00 in0.0 mm 0.00 in0.0 mm 0.00 in0.0 mm
01:57 AM 73.6°F23.1°C 71.8°F22.1°C 94% 1.0 mph WSW1.6 kmh WSW 4.0 mph6.4 kmh 29.96 in1014.6 mb 0.00 in0.0 mm 0.00 in0.0 mm 0.00 in0.0 mm
02:02 AM 73.5°F23.1°C 71.7°F22.1°C 94% Calm Calm 4.0 mph6.4 kmh 29.96 in1014.6 mb 0.01 in0.3 mm 0.01 in0.3 mm 0.01 in0.3 mm
02:07 AM 73.4°F23.0°C 71.5°F21.9°C 94% 1.0 mph WSW1.6 kmh WSW 4.0 mph6.4 kmh 29.96 in1014.6 mb 0.01 in0.3 mm 0.00 in0.0 mm 0.01 in0.3 mm
02:12 AM 73.3°F22.9°C 71.8°F22.1°C 95% 1.3 mph WSW2.1 kmh WSW 3.0 mph4.8 kmh 29.95 in1014.2 mb 0.02 in0.5 mm 0.12 in3.0 mm 0.02 in0.5 mm
02:17 AM 73.2°F22.9°C 71.7°F22.1°C 95% 1.7 mph W2.7 kmh W 3.0 mph4.8 kmh 29.96 in1014.6 mb 0.02 in0.5 mm 0.00 in0.0 mm 0.02 in0.5 mm
02:22 AM 73.2°F22.9°C 71.7°F22.1°C 95% 1.7 mph WSW2.7 kmh WSW 4.0 mph6.4 kmh 29.96 in1014.6 mb 0.02 in0.5 mm 0.00 in0.0 mm 0.02 in0.5 mm
02:27 AM 73.2°F22.9°C 71.7°F22.1°C 95% 1.5 mph WNW2.4 kmh WNW 4.0 mph6.4 kmh 29.95 in1014.2 mb 0.02 in0.5 mm 0.00 in0.0 mm 0.02 in0.5 mm
02:32 AM 73.1°F22.8°C 71.6°F22.0°C 95% 1.1 mph W1.8 kmh W 4.0 mph6.4 kmh 29.95 in1014.2 mb 0.03 in0.8 mm 0.12 in3.0 mm 0.03 in0.8 mm
02:37 AM 73.1°F22.8°C 71.6°F22.0°C 95% 1.0 mph WSW1.6 kmh WSW 4.0 mph6.4 kmh 29.95 in1014.2 mb 0.03 in0.8 mm 0.00 in0.0 mm 0.03 in0.8 mm
02:42 AM 73.0°F22.8°C 71.8°F22.1°C 96% Calm Calm 4.0 mph6.4 kmh 29.95 in1014.2 mb 0.03 in0.8 mm 0.00 in0.0 mm 0.03 in0.8 mm
02:47 AM 72.9°F22.7°C 71.7°F22.1°C 96% 1.1 mph W1.8 kmh W 3.0 mph4.8 kmh 29.95 in1014.2 mb 0.03 in0.8 mm 0.00 in0.0 mm 0.03 in0.8 mm
02:52 AM 72.9°F22.7°C 71.7°F22.1°C 96% Calm Calm 3.0 mph4.8 kmh 29.95 in1014.2 mb 0.04 in1.0 mm 0.12 in3.0 mm 0.04 in1.0 mm
02:57 AM 72.9°F22.7°C 71.7°F22.1°C 96% 1.0 mph W1.6 kmh W 3.0 mph4.8 kmh 29.94 in1013.9 mb 0.04 in1.0 mm 0.00 in0.0 mm 0.04 in1.0 mm
03:02 AM 72.9°F22.7°C 71.7°F22.1°C 96% Calm Calm 3.0 mph4.8 kmh 29.94 in1013.9 mb 0.03 in0.8 mm 0.00 in0.0 mm 0.04 in1.0 mm
03:07 AM 72.8°F22.7°C 71.6°F22.0°C 96% 1.1 mph W1.8 kmh W 2.0 mph3.2 kmh 29.94 in1013.9 mb 0.03 in0.8 mm 0.00 in0.0 mm 0.04 in1.0 mm
03:12 AM 72.8°F22.7°C 71.6°F22.0°C 96% 1.3 mph WNW2.1 kmh WNW 3.0 mph4.8 kmh 29.94 in1013.9 mb 0.02 in0.5 mm 0.00 in0.0 mm 0.04 in1.0 mm
03:17 AM 72.8°F22.7°C 71.6°F22.0°C 96% 1.0 mph W1.6 kmh W 3.0 mph4.8 kmh 29.94 in1013.9 mb 0.02 in0.5 mm 0.00 in0.0 mm 0.04 in1.0 mm
03:22 AM 72.8°F22.7°C 71.6°F22.0°C 96% 1.0 mph W1.6 kmh W 3.0 mph4.8 kmh 29.94 in1013.9 mb 0.02 in0.5 mm 0.00 in0.0 mm 0.04 in1.0 mm
03:27 AM 72.8°F22.7°C 71.6°F22.0°C 96% 1.0 mph W1.6 kmh W 3.0 mph4.8 kmh 29.94 in1013.9 mb 0.02 in0.5 mm 0.00 in0.0 mm 0.04 in1.0 mm
03:32 AM 72.7°F22.6°C 71.5°F21.9°C 96% Calm Calm 2.0 mph3.2 kmh 29.94 in1013.9 mb 0.01 in0.3 mm 0.00 in0.0 mm 0.04 in1.0 mm
03:37 AM 72.7°F22.6°C 71.5°F21.9°C 96% 1.0 mph W1.6 kmh W 1.0 mph1.6 kmh 29.94 in1013.9 mb 0.01 in0.3 mm 0.00 in0.0 mm 0.04 in1.0 mm
03:42 AM 72.7°F22.6°C 71.5°F21.9°C 96% 1.0 mph WSW1.6 kmh WSW 1.0 mph1.6 kmh 29.94 in1013.9 mb 0.01 in0.3 mm 0.00 in0.0 mm 0.04 in1.0 mm
03:47 AM 72.6°F22.6°C 71.4°F21.9°C 96% 1.3 mph W2.1 kmh W 2.0 mph3.2 kmh 29.95 in1014.2 mb 0.01 in0.3 mm 0.00 in0.0 mm 0.04 in1.0 mm
03:52 AM 72.6°F22.6°C 71.4°F21.9°C 96% 1.0 mph WNW1.6 kmh WNW 2.0 mph3.2 kmh 29.95 in1014.2 mb 0.00 in0.0 mm 0.00 in0.0 mm 0.04 in1.0 mm
03:57 AM 72.7°F22.6°C 71.5°F21.9°C 96% 1.3 mph W2.1 kmh W 2.0 mph3.2 kmh 29.95 in1014.2 mb 0.00 in0.0 mm 0.00 in0.0 mm 0.04 in1.0 mm
04:02 AM 72.8°F22.7°C 71.6°F22.0°C 96% 1.2 mph NW1.9 kmh NW 3.0 mph4.8 kmh 29.95 in1014.2 mb 0.00 in0.0 mm 0.00 in0.0 mm 0.04 in1.0 mm
04:07 AM 72.7°F22.6°C 71.5°F21.9°C 96% 2.1 mph W3.4 kmh W 4.0 mph6.4 kmh 29.95 in1014.2 mb 0.00 in0.0 mm 0.00 in0.0 mm 0.04 in1.0 mm
04:12 AM 72.7°F22.6°C 71.5°F21.9°C 96% 1.5 mph NW2.4 kmh NW 5.0 mph8.0 kmh 29.95 in1014.2 mb 0.00 in0.0 mm 0.00 in0.0 mm 0.04 in1.0 mm
04:17 AM 72.7°F22.6°C 71.5°F21.9°C 96% 1.6 mph NW2.6 kmh NW 5.0 mph8.0 kmh 29.96 in1014.6 mb 0.00 in0.0 mm 0.00 in0.0 mm 0.04 in1.0 mm
04:22 AM 72.6°F22.6°C 71.4°F21.9°C 96% 1.5 mph WNW2.4 kmh WNW 5.0 mph8.0 kmh 29.96 in1014.6 mb 0.00 in0.0 mm 0.00 in0.0 mm 0.04 in1.0 mm
04:27 AM 72.5°F22.5°C 71.3°F21.8°C 96% 1.4 mph WNW2.3 kmh WNW 5.0 mph8.0 kmh 29.96 in1014.6 mb 0.00 in0.0 mm 0.00 in0.0 mm 0.04 in1.0 mm
04:32 AM 72.5°F22.5°C 71.3°F21.8°C 96% 2.3 mph WNW3.7 kmh WNW 5.0 mph8.0 kmh 29.96 in1014.6 mb 0.00 in0.0 mm 0.00 in0.0 mm 0.04 in1.0 mm
04:37 AM 72.4°F22.4°C 71.2°F21.8°C 96% 1.6 mph NW2.6 kmh NW 4.0 mph6.4 kmh 29.96 in1014.6 mb 0.00 in0.0 mm 0.00 in0.0 mm 0.04 in1.0 mm
04:42 AM 72.3°F22.4°C 71.1°F21.7°C 96% 2.2 mph W3.5 kmh W 5.0 mph8.0 kmh 29.96 in1014.6 mb 0.01 in0.3 mm 0.12 in3.0 mm 0.05 in1.3 mm
04:47 AM 72.2°F22.3°C 71.0°F21.7°C 96% 2.2 mph NW3.5 kmh NW 5.0 mph8.0 kmh 29.96 in1014.6 mb 0.01 in0.3 mm 0.00 in0.0 mm 0.05 in1.3 mm
04:52 AM 72.1°F22.3°C 70.9°F21.6°C 96% 2.3 mph WNW3.7 kmh WNW 6.0 mph9.7 kmh 29.96 in1014.6 mb 0.01 in0.3 mm 0.00 in0.0 mm 0.05 in1.3 mm
04:57 AM 71.9°F22.2°C 70.7°F21.5°C 96% 1.8 mph WNW2.9 kmh WNW 6.0 mph9.7 kmh 29.96 in1014.6 mb 0.01 in0.3 mm 0.00 in0.0 mm 0.05 in1.3 mm
05:02 AM 71.8°F22.1°C 70.6°F21.4°C 96% 2.9 mph WNW4.7 kmh WNW 7.0 mph11.3 kmh 29.96 in1014.6 mb 0.02 in0.5 mm 0.01 in0.3 mm 0.06 in1.5 mm
05:07 AM 71.6°F22.0°C 70.4°F21.3°C 96% 2.6 mph WNW4.2 kmh WNW 8.0 mph12.9 kmh 29.96 in1014.6 mb 0.02 in0.5 mm 0.00 in0.0 mm 0.06 in1.5 mm
05:12 AM 71.6°F22.0°C 70.4°F21.3°C 96% 2.2 mph WNW3.5 kmh WNW 8.0 mph12.9 kmh 29.96 in1014.6 mb 0.02 in0.5 mm 0.00 in0.0 mm 0.06 in1.5 mm
05:17 AM 71.5°F21.9°C 70.3°F21.3°C 96% 2.3 mph WNW3.7 kmh WNW 8.0 mph12.9 kmh 29.95 in1014.2 mb 0.02 in0.5 mm 0.00 in0.0 mm 0.06 in1.5 mm
05:22 AM 71.5°F21.9°C 70.3°F21.3°C 96% 1.5 mph W2.4 kmh W 7.0 mph11.3 kmh 29.96 in1014.6 mb 0.02 in0.5 mm 0.00 in0.0 mm 0.06 in1.5 mm
05:27 AM 71.5°F21.9°C 70.3°F21.3°C 96% 1.9 mph W3.1 kmh W 7.0 mph11.3 kmh 29.96 in1014.6 mb 0.02 in0.5 mm 0.00 in0.0 mm 0.06 in1.5 mm
05:32 AM 71.5°F21.9°C 70.3°F21.3°C 96% 1.8 mph W2.9 kmh W 5.0 mph8.0 kmh 29.96 in1014.6 mb 0.02 in0.5 mm 0.00 in0.0 mm 0.06 in1.5 mm
05:37 AM 71.5°F21.9°C 70.3°F21.3°C 96% 1.3 mph WNW2.1 kmh WNW 5.0 mph8.0 kmh 29.96 in1014.6 mb 0.02 in0.5 mm 0.00 in0.0 mm 0.06 in1.5 mm
05:42 AM 71.6°F22.0°C 70.4°F21.3°C 96% 1.0 mph WNW1.6 kmh WNW 4.0 mph6.4 kmh 29.96 in1014.6 mb 0.01 in0.3 mm 0.00 in0.0 mm 0.06 in1.5 mm
05:47 AM 71.6°F22.0°C 70.4°F21.3°C 96% 1.6 mph WSW2.6 kmh WSW 4.0 mph6.4 kmh 29.97 in1014.9 mb 0.02 in0.5 mm 0.12 in3.0 mm 0.07 in1.8 mm
05:52 AM 71.5°F21.9°C 70.3°F21.3°C 96% 1.0 mph WSW1.6 kmh WSW 4.0 mph6.4 kmh 29.97 in1014.9 mb 0.08 in2.0 mm 0.72 in18.3 mm 0.13 in3.3 mm
05:57 AM 71.5°F21.9°C 70.3°F21.3°C 96% 1.3 mph ESE2.1 kmh ESE 4.0 mph6.4 kmh 29.97 in1014.9 mb 0.15 in3.8 mm 0.84 in21.3 mm 0.20 in5.1 mm
06:02 AM 71.4°F21.9°C 70.2°F21.2°C 96% 1.0 mph SE1.6 kmh SE 3.0 mph4.8 kmh 29.98 in1015.2 mb 0.17 in4.3 mm 0.02 in0.5 mm 0.23 in5.8 mm
06:07 AM 71.3°F21.8°C 70.1°F21.2°C 96% Calm Calm 2.0 mph3.2 kmh 29.97 in1014.9 mb 0.17 in4.3 mm 0.00 in0.0 mm 0.23 in5.8 mm
06:12 AM 71.3°F21.8°C 70.1°F21.2°C 96% 1.7 mph NNW2.7 kmh NNW 2.0 mph3.2 kmh 29.97 in1014.9 mb 0.19 in4.8 mm 0.24 in6.1 mm 0.25 in6.4 mm
06:17 AM 71.4°F21.9°C 70.5°F21.4°C 97% 1.0 mph WNW1.6 kmh WNW 2.0 mph3.2 kmh 29.97 in1014.9 mb 0.19 in4.8 mm 0.00 in0.0 mm 0.25 in6.4 mm
06:22 AM 71.4°F21.9°C 70.5°F21.4°C 97% 1.0 mph WNW1.6 kmh WNW 2.0 mph3.2 kmh 29.97 in1014.9 mb 0.19 in4.8 mm 0.00 in0.0 mm 0.25 in6.4 mm
06:27 AM 71.4°F21.9°C 70.5°F21.4°C 97% Calm Calm 2.0 mph3.2 kmh 29.97 in1014.9 mb 0.19 in4.8 mm 0.00 in0.0 mm 0.25 in6.4 mm
06:31 AM 71.4°F21.9°C 70.5°F21.4°C 97% 1.4 mph NW2.3 kmh NW 2.0 mph3.2 kmh 29.97 in1014.9 mb 0.19 in4.8 mm 0.00 in0.0 mm 0.25 in6.4 mm
06:36 AM 71.4°F21.9°C 70.5°F21.4°C 97% 1.0 mph NW1.6 kmh NW 2.0 mph3.2 kmh 29.97 in1014.9 mb 0.19 in4.8 mm 0.00 in0.0 mm 0.25 in6.4 mm
06:41 AM 71.3°F21.8°C 70.4°F21.3°C 97% 1.4 mph WNW2.3 kmh WNW 3.0 mph4.8 kmh 29.97 in1014.9 mb 0.19 in4.8 mm 0.00 in0.0 mm 0.25 in6.4 mm
06:46 AM 71.3°F21.8°C 70.4°F21.3°C 97% 1.7 mph NW2.7 kmh NW 4.0 mph6.4 kmh 29.98 in1015.2 mb 0.18 in4.6 mm 0.00 in0.0 mm 0.25 in6.4 mm
06:51 AM 71.3°F21.8°C 70.4°F21.3°C 97% 1.6 mph NNW2.6 kmh NNW 4.0 mph6.4 kmh 29.98 in1015.2 mb 0.14 in3.6 mm 0.00 in0.0 mm 0.25 in6.4 mm
06:56 AM 71.3°F21.8°C 70.4°F21.3°C 97% 1.4 mph NW2.3 kmh NW 4.0 mph6.4 kmh 29.98 in1015.2 mb 0.06 in1.5 mm 0.00 in0.0 mm 0.25 in6.4 mm
07:01 AM 71.4°F21.9°C 70.5°F21.4°C 97% 1.0 mph WNW1.6 kmh WNW 4.0 mph6.4 kmh 29.98 in1015.2 mb 0.03 in0.8 mm 0.00 in0.0 mm 0.25 in6.4 mm
07:06 AM 71.5°F21.9°C 70.6°F21.4°C 97% 2.1 mph NW3.4 kmh NW 4.0 mph6.4 kmh 29.99 in1015.6 mb 0.02 in0.5 mm 0.00 in0.0 mm 0.25 in6.4 mm
07:11 AM 71.6°F22.0°C 70.7°F21.5°C 97% 1.0 mph NW1.6 kmh NW 4.0 mph6.4 kmh 29.99 in1015.6 mb 0.01 in0.3 mm 0.00 in0.0 mm 0.25 in6.4 mm
07:16 AM 71.7°F22.1°C 70.8°F21.6°C 97% 1.4 mph NW2.3 kmh NW 4.0 mph6.4 kmh 29.99 in1015.6 mb 0.00 in0.0 mm 0.00 in0.0 mm 0.25 in6.4 mm
07:21 AM 71.8°F22.1°C 70.9°F21.6°C 97% 1.0 mph WNW1.6 kmh WNW 4.0 mph6.4 kmh 29.99 in1015.6 mb 0.00 in0.0 mm 0.00 in0.0 mm 0.25 in6.4 mm
07:26 AM 71.9°F22.2°C 71.0°F21.7°C 97% 1.3 mph NW2.1 kmh NW 3.0 mph4.8 kmh 29.99 in1015.6 mb 0.00 in0.0 mm 0.00 in0.0 mm 0.25 in6.4 mm
07:31 AM 72.1°F22.3°C 71.2°F21.8°C 97% 1.0 mph NNE1.6 kmh NNE 3.0 mph4.8 kmh 29.99 in1015.6 mb 0.00 in0.0 mm 0.00 in0.0 mm 0.25 in6.4 mm
07:36 AM 72.2°F22.3°C 71.3°F21.8°C 97% 1.0 mph N1.6 kmh N 2.0 mph3.2 kmh 29.99 in1015.6 mb 0.00 in0.0 mm 0.00 in0.0 mm 0.25 in6.4 mm
07:41 AM 72.5°F22.5°C 71.3°F21.8°C 96% 1.1 mph N1.8 kmh N 2.0 mph3.2 kmh 29.99 in1015.6 mb 0.00 in0.0 mm 0.00 in0.0 mm 0.25 in6.4 mm
07:46 AM 72.9°F22.7°C 71.7°F22.1°C 96% 1.0 mph N1.6 kmh N 2.0 mph3.2 kmh 29.99 in1015.6 mb 0.00 in0.0 mm 0.00 in0.0 mm 0.25 in6.4 mm
07:51 AM 73.5°F23.1°C 72.3°F22.4°C 96% 1.0 mph NW1.6 kmh NW 2.0 mph3.2 kmh 29.99 in1015.6 mb 0.00 in0.0 mm 0.00 in0.0 mm 0.25 in6.4 mm
07:56 AM 73.6°F23.1°C 72.0°F22.2°C 95% 1.8 mph NW2.9 kmh NW 3.0 mph4.8 kmh 29.99 in1015.6 mb 0.00 in0.0 mm 0.00 in0.0 mm 0.25 in6.4 mm
08:01 AM 73.7°F23.2°C 71.8°F22.1°C 94% 1.1 mph NW1.8 kmh NW 3.0 mph4.8 kmh 29.99 in1015.6 mb 0.00 in0.0 mm 0.00 in0.0 mm 0.25 in6.4 mm
08:06 AM 74.0°F23.3°C 72.1°F22.3°C 94% 1.1 mph NW1.8 kmh NW 3.0 mph4.8 kmh 29.99 in1015.6 mb 0.00 in0.0 mm 0.00 in0.0 mm 0.25 in6.4 mm
08:11 AM 74.4°F23.6°C 72.6°F22.6°C 94% 1.3 mph NE2.1 kmh NE 3.0 mph4.8 kmh 29.99 in1015.6 mb 0.00 in0.0 mm 0.00 in0.0 mm 0.25 in6.4 mm
08:16 AM 74.9°F23.8°C 72.1°F22.3°C 91% 2.2 mph NNW3.5 kmh NNW 5.0 mph8.0 kmh 29.99 in1015.6 mb 0.00 in0.0 mm 0.00 in0.0 mm 0.25 in6.4 mm
08:21 AM 75.0°F23.9°C 72.2°F22.3°C 91% 2.4 mph NW3.9 kmh NW 5.0 mph8.0 kmh 29.99 in1015.6 mb 0.00 in0.0 mm 0.00 in0.0 mm 0.25 in6.4 mm
08:26 AM 75.3°F24.1°C 72.5°F22.5°C 91% 1.3 mph NW2.1 kmh NW 5.0 mph8.0 kmh 29.99 in1015.6 mb 0.00 in0.0 mm 0.00 in0.0 mm 0.25 in6.4 mm
08:31 AM 75.7°F24.3°C 72.9°F22.7°C 91% 1.3 mph NW2.1 kmh NW 5.0 mph8.0 kmh 29.99 in1015.6 mb 0.00 in0.0 mm 0.00 in0.0 mm 0.25 in6.4 mm
08:36 AM 75.8°F24.3°C 72.3°F22.4°C 89% 1.8 mph NW2.9 kmh NW 5.0 mph8.0 kmh 30.00 in1015.9 mb 0.00 in0.0 mm 0.00 in0.0 mm 0.25 in6.4 mm
08:41 AM 76.1°F24.5°C 72.6°F22.6°C 89% 1.5 mph NW2.4 kmh NW 5.0 mph8.0 kmh 30.00 in1015.9 mb 0.00 in0.0 mm 0.00 in0.0 mm 0.25 in6.4 mm
08:46 AM 76.3°F24.6°C 72.5°F22.5°C 88% 2.1 mph NW3.4 kmh NW 5.0 mph8.0 kmh 30.00 in1015.9 mb 0.00 in0.0 mm 0.00 in0.0 mm 0.25 in6.4 mm
08:51 AM 76.6°F24.8°C 72.5°F22.5°C 87% 1.6 mph NW2.6 kmh NW 5.0 mph8.0 kmh 30.00 in1015.9 mb 0.00 in0.0 mm 0.00 in0.0 mm 0.25 in6.4 mm
08:56 AM 77.2°F25.1°C 72.7°F22.6°C 86% 1.2 mph N1.9 kmh N 5.0 mph8.0 kmh 30.00 in1015.9 mb 0.00 in0.0 mm 0.00 in0.0 mm 0.25 in6.4 mm
09:01 AM 77.3°F25.2°C 72.8°F22.7°C 86% 1.9 mph N3.1 kmh N 5.0 mph8.0 kmh 30.00 in1015.9 mb 0.00 in0.0 mm 0.00 in0.0 mm 0.25 in6.4 mm
09:06 AM 77.0°F25.0°C 72.2°F22.3°C 85% 1.5 mph NNW2.4 kmh NNW 5.0 mph8.0 kmh 29.99 in1015.6 mb 0.00 in0.0 mm 0.00 in0.0 mm 0.25 in6.4 mm
09:11 AM 77.3°F25.2°C 72.8°F22.7°C 86% 1.4 mph NNE2.3 kmh NNE 5.0 mph8.0 kmh 29.99 in1015.6 mb 0.00 in0.0 mm 0.00 in0.0 mm 0.25 in6.4 mm
09:16 AM 77.8°F25.4°C 72.9°F22.7°C 85% 1.9 mph NW3.1 kmh NW 5.0 mph8.0 kmh 29.99 in1015.6 mb 0.00 in0.0 mm 0.00 in0.0 mm 0.25 in6.4 mm
09:21 AM 77.9°F25.5°C 72.7°F22.6°C 84% 2.3 mph NE3.7 kmh NE 4.0 mph6.4 kmh 30.00 in1015.9 mb 0.00 in0.0 mm 0.00 in0.0 mm 0.25 in6.4 mm
09:26 AM 78.1°F25.6°C 72.9°F22.7°C 84% 1.0 mph N1.6 kmh N 4.0 mph6.4 kmh 29.99 in1015.6 mb 0.00 in0.0 mm 0.00 in0.0 mm 0.25 in6.4 mm
09:31 AM 78.8°F26.0°C 73.6°F23.1°C 84% 1.0 mph NNE1.6 kmh NNE 4.0 mph6.4 kmh 29.99 in1015.6 mb 0.00 in0.0 mm 0.00 in0.0 mm 0.25 in6.4 mm
09:36 AM 79.1°F26.2°C 73.6°F23.1°C 83% 2.2 mph NE3.5 kmh NE 4.0 mph6.4 kmh 30.00 in1015.9 mb 0.00 in0.0 mm 0.00 in0.0 mm 0.25 in6.4 mm
09:41 AM 79.7°F26.5°C 73.7°F23.2°C 82% 1.0 mph W1.6 kmh W 4.0 mph6.4 kmh 30.00 in1015.9 mb 0.00 in0.0 mm 0.00 in0.0 mm 0.25 in6.4 mm
09:46 AM 80.3°F26.8°C 73.7°F23.2°C 80% 1.0 mph NE1.6 kmh NE 4.0 mph6.4 kmh 30.00 in1015.9 mb 0.00 in0.0 mm 0.00 in0.0 mm 0.25 in6.4 mm
09:51 AM 79.6°F26.4°C 72.6°F22.6°C 79% 3.1 mph NE5.0 kmh NE 6.0 mph9.7 kmh 30.00 in1015.9 mb 0.00 in0.0 mm 0.00 in0.0 mm 0.25 in6.4 mm
09:56 AM 79.7°F26.5°C 72.7°F22.6°C 79% Calm Calm 6.0 mph9.7 kmh 30.00 in1015.9 mb 0.00 in0.0 mm 0.00 in0.0 mm 0.25 in6.4 mm
10:01 AM 80.0°F26.7°C 71.9°F22.2°C 76% 2.4 mph ENE3.9 kmh ENE 6.0 mph9.7 kmh 30.00 in1015.9 mb 0.00 in0.0 mm 0.00 in0.0 mm 0.25 in6.4 mm
10:06 AM 80.2°F26.8°C 72.5°F22.5°C 77% 1.0 mph NW1.6 kmh NW 6.0 mph9.7 kmh 30.00 in1015.9 mb 0.00 in0.0 mm 0.00 in0.0 mm 0.25 in6.4 mm
10:11 AM 80.6°F27.0°C 72.3°F22.4°C 76% 1.3 mph NW2.1 kmh NW 6.0 mph9.7 kmh 30.00 in1015.9 mb 0.00 in0.0 mm 0.00 in0.0 mm 0.25 in6.4 mm
10:16 AM 80.9°F27.2°C 72.6°F22.6°C 76% 1.0 mph W1.6 kmh W 6.0 mph9.7 kmh 30.00 in1015.9 mb 0.00 in0.0 mm 0.00 in0.0 mm 0.25 in6.4 mm
10:21 AM 81.5°F27.5°C 73.8°F23.2°C 77% 1.0 mph NNE1.6 kmh NNE 6.0 mph9.7 kmh 30.00 in1015.9 mb 0.00 in0.0 mm 0.00 in0.0 mm 0.25 in6.4 mm
10:26 AM 81.7°F27.6°C 72.4°F22.4°C 73% 1.5 mph NE2.4 kmh NE 5.0 mph8.0 kmh 30.00 in1015.9 mb 0.00 in0.0 mm 0.00 in0.0 mm 0.25 in6.4 mm
10:31 AM 81.8°F27.7°C 73.7°F23.2°C 76% 2.5 mph 4.0 kmh 7.0 mph11.3 kmh 30.00 in1015.9 mb 0.00 in0.0 mm 0.00 in0.0 mm 0.25 in6.4 mm
10:36 AM 81.9°F27.7°C 72.2°F22.3°C 72% 2.6 mph NW4.2 kmh NW 7.0 mph11.3 kmh 30.00 in1015.9 mb 0.00 in0.0 mm 0.00 in0.0 mm 0.25 in6.4 mm
10:41 AM 82.0°F27.8°C 72.5°F22.5°C 73% 1.3 mph NNW2.1 kmh NNW 7.0 mph11.3 kmh 30.00 in1015.9 mb 0.00 in0.0 mm 0.00 in0.0 mm 0.25 in6.4 mm
10:46 AM 82.1°F27.8°C 72.0°F22.2°C 71% 1.0 mph NW1.6 kmh NW 7.0 mph11.3 kmh 30.00 in1015.9 mb 0.00 in0.0 mm 0.00 in0.0 mm 0.25 in6.4 mm
10:51 AM 82.3°F27.9°C 71.8°F22.1°C 70% 1.3 mph NNE2.1 kmh NNE 4.0 mph6.4 kmh 30.00 in1015.9 mb 0.00 in0.0 mm 0.00 in0.0 mm 0.25 in6.4 mm
10:56 AM 82.4°F28.0°C 72.7°F22.6°C 72% 1.8 mph NW2.9 kmh NW 4.0 mph6.4 kmh 30.00 in1015.9 mb 0.00 in0.0 mm 0.00 in0.0 mm 0.25 in6.4 mm
11:01 AM 82.7°F28.2°C 72.2°F22.3°C 70% 2.2 mph N3.5 kmh N 5.0 mph8.0 kmh 30.00 in1015.9 mb 0.00 in0.0 mm 0.00 in0.0 mm 0.25 in6.4 mm
11:06 AM 82.7°F28.2°C 72.2°F22.3°C 70% 2.7 mph N4.3 kmh N 5.0 mph8.0 kmh 30.00 in1015.9 mb 0.00 in0.0 mm 0.00 in0.0 mm 0.25 in6.4 mm
11:11 AM 82.5°F28.1°C 70.9°F21.6°C 68% 1.9 mph NNW3.1 kmh NNW 5.0 mph8.0 kmh 30.00 in1015.9 mb 0.00 in0.0 mm 0.00 in0.0 mm 0.25 in6.4 mm
11:16 AM 82.3°F27.9°C 71.4°F21.9°C 69% 1.0 mph N1.6 kmh N 5.0 mph8.0 kmh 30.00 in1015.9 mb 0.00 in0.0 mm 0.00 in0.0 mm 0.25 in6.4 mm
11:21 AM 82.7°F28.2°C 71.7°F22.1°C 69% 1.0 mph WSW1.6 kmh WSW 4.0 mph6.4 kmh 30.00 in1015.9 mb 0.00 in0.0 mm 0.00 in0.0 mm 0.25 in6.4 mm
11:26 AM 83.2°F28.4°C 71.5°F21.9°C 68% 1.8 mph NNW2.9 kmh NNW 5.0 mph8.0 kmh 30.00 in1015.9 mb 0.00 in0.0 mm 0.00 in0.0 mm 0.25 in6.4 mm
11:30 AM 83.6°F28.7°C 72.2°F22.3°C 68% 1.5 mph NNE2.4 kmh NNE 5.0 mph8.0 kmh 30.00 in1015.9 mb 0.00 in0.0 mm 0.00 in0.0 mm 0.25 in6.4 mm
11:35 AM 83.2°F28.4°C 71.4°F21.9°C 67% Calm Calm 6.0 mph9.7 kmh 30.00 in1015.9 mb 0.00 in0.0 mm 0.00 in0.0 mm 0.25 in6.4 mm
11:40 AM 83.4°F28.6°C 72.0°F22.2°C 68% 1.6 mph NW2.6 kmh NW 6.0 mph9.7 kmh 30.00 in1015.9 mb 0.00 in0.0 mm 0.00 in0.0 mm 0.25 in6.4 mm
11:45 AM 83.3°F28.5°C 72.1°F22.3°C 69% 2.4 mph NNE3.9 kmh NNE 6.0 mph9.7 kmh 29.99 in1015.6 mb 0.00 in0.0 mm 0.00 in0.0 mm 0.25 in6.4 mm
11:50 AM 83.1°F28.4°C 70.8°F21.6°C 66% 3.4 mph NW5.5 kmh NW 5.0 mph8.0 kmh 29.99 in1015.6 mb 0.00 in0.0 mm 0.00 in0.0 mm 0.25 in6.4 mm
11:55 AM 83.2°F28.4°C 71.8°F22.1°C 68% 1.5 mph NW2.4 kmh NW 7.0 mph11.3 kmh 29.99 in1015.6 mb 0.00 in0.0 mm 0.00 in0.0 mm 0.25 in6.4 mm
12:00 PM 83.5°F28.6°C 70.5°F21.4°C 65% 4.2 mph NW6.8 kmh NW 8.0 mph12.9 kmh 29.99 in1015.6 mb 0.00 in0.0 mm 0.00 in0.0 mm 0.25 in6.4 mm
12:05 PM 84.1°F28.9°C 71.3°F21.8°C 65% 2.2 mph WNW3.5 kmh WNW 8.0 mph12.9 kmh 29.99 in1015.6 mb 0.00 in0.0 mm 0.00 in0.0 mm 0.25 in6.4 mm
12:10 PM 84.2°F29.0°C 71.9°F22.2°C 66% 3.8 mph NNE6.1 kmh NNE 10.0 mph16.1 kmh 29.99 in1015.6 mb 0.00 in0.0 mm 0.00 in0.0 mm 0.25 in6.4 mm
12:15 PM 84.6°F29.2°C 72.9°F22.7°C 68% 1.5 mph N2.4 kmh N 10.0 mph16.1 kmh 29.99 in1015.6 mb 0.00 in0.0 mm 0.00 in0.0 mm 0.25 in6.4 mm
12:20 PM 84.6°F29.2°C 72.3°F22.4°C 66% 3.2 mph NE5.1 kmh NE 10.0 mph16.1 kmh 29.99 in1015.6 mb 0.00 in0.0 mm 0.00 in0.0 mm 0.25 in6.4 mm
12:25 PM 84.6°F29.2°C 72.3°F22.4°C 66% 2.7 mph NW4.3 kmh NW 10.0 mph16.1 kmh 29.99 in1015.6 mb 0.00 in0.0 mm 0.00 in0.0 mm 0.25 in6.4 mm
12:30 PM 84.5°F29.2°C 72.2°F22.3°C 66% 2.1 mph NE3.4 kmh NE 8.0 mph12.9 kmh 29.99 in1015.6 mb 0.00 in0.0 mm 0.00 in0.0 mm 0.25 in6.4 mm
12:35 PM 84.3°F29.1°C 71.7°F22.1°C 66% 1.0 mph NW1.6 kmh NW 8.0 mph12.9 kmh 29.98 in1015.2 mb 0.00 in0.0 mm 0.00 in0.0 mm 0.25 in6.4 mm
12:40 PM 84.4°F29.1°C 71.3°F21.8°C 65% 2.2 mph NNE3.5 kmh NNE 8.0 mph12.9 kmh 29.98 in1015.2 mb 0.00 in0.0 mm 0.00 in0.0 mm 0.25 in6.4 mm
12:45 PM 84.5°F29.2°C 71.7°F22.1°C 65% 3.8 mph NE6.1 kmh NE 9.0 mph14.5 kmh 29.98 in1015.2 mb 0.00 in0.0 mm 0.00 in0.0 mm 0.25 in6.4 mm
12:50 PM 84.1°F28.9°C 71.3°F21.8°C 65% 3.6 mph NW5.8 kmh NW 9.0 mph14.5 kmh 29.98 in1015.2 mb 0.00 in0.0 mm 0.00 in0.0 mm 0.25 in6.4 mm
12:55 PM 83.4°F28.6°C 69.9°F21.1°C 64% 3.7 mph NNW6.0 kmh NNW 11.0 mph17.7 kmh 29.98 in1015.2 mb 0.00 in0.0 mm 0.00 in0.0 mm 0.25 in6.4 mm
01:00 PM 83.9°F28.8°C 71.3°F21.8°C 66% 2.5 mph WNW4.0 kmh WNW 11.0 mph17.7 kmh 29.98 in1015.2 mb 0.00 in0.0 mm 0.00 in0.0 mm 0.25 in6.4 mm
01:05 PM 83.7°F28.7°C 71.8°F22.1°C 67% 2.4 mph NNW3.9 kmh NNW 11.0 mph17.7 kmh 29.98 in1015.2 mb 0.00 in0.0 mm 0.00 in0.0 mm 0.25 in6.4 mm
01:10 PM 84.1°F28.9°C 71.3°F21.8°C 65% 1.2 mph N1.9 kmh N 11.0 mph17.7 kmh 29.98 in1015.2 mb 0.00 in0.0 mm 0.00 in0.0 mm 0.25 in6.4 mm
01:15 PM 84.1°F28.9°C 70.4°F21.3°C 63% 3.7 mph NW6.0 kmh NW 9.0 mph14.5 kmh 29.97 in1014.9 mb 0.00 in0.0 mm 0.00 in0.0 mm 0.25 in6.4 mm
01:20 PM 84.3°F29.1°C 70.8°F21.6°C 64% 2.7 mph NW4.3 kmh NW 9.0 mph14.5 kmh 29.97 in1014.9 mb 0.00 in0.0 mm 0.00 in0.0 mm 0.25 in6.4 mm
01:25 PM 84.8°F29.3°C 72.0°F22.2°C 65% 5.3 mph NE8.5 kmh NE 12.0 mph19.3 kmh 29.97 in1014.9 mb 0.00 in0.0 mm 0.00 in0.0 mm 0.25 in6.4 mm
01:30 PM 84.7°F29.3°C 72.4°F22.4°C 66% 3.8 mph NNW6.1 kmh NNW 12.0 mph19.3 kmh 29.96 in1014.6 mb 0.00 in0.0 mm 0.00 in0.0 mm 0.25 in6.4 mm
01:35 PM 83.6°F28.7°C 71.7°F22.1°C 67% 3.0 mph NNE4.8 kmh NNE 12.0 mph19.3 kmh 29.97 in1014.9 mb 0.00 in0.0 mm 0.00 in0.0 mm 0.25 in6.4 mm
01:40 PM 83.6°F28.7°C 71.3°F21.8°C 66% 5.8 mph NNE9.3 kmh NNE 13.0 mph20.9 kmh 29.96 in1014.6 mb 0.00 in0.0 mm 0.00 in0.0 mm 0.25 in6.4 mm
01:45 PM 83.7°F28.7°C 71.1°F21.7°C 66% 3.1 mph NE5.0 kmh NE 13.0 mph20.9 kmh 29.96 in1014.6 mb 0.00 in0.0 mm 0.00 in0.0 mm 0.25 in6.4 mm
01:50 PM 83.1°F28.4°C 70.4°F21.3°C 65% 7.3 mph NE11.7 kmh NE 15.0 mph24.1 kmh 29.96 in1014.6 mb 0.00 in0.0 mm 0.00 in0.0 mm 0.25 in6.4 mm
01:55 PM 82.9°F28.3°C 71.1°F21.7°C 67% 3.6 mph NNE5.8 kmh NNE 15.0 mph24.1 kmh 29.95 in1014.2 mb 0.00 in0.0 mm 0.00 in0.0 mm 0.25 in6.4 mm
02:00 PM 83.1°F28.4°C 70.8°F21.6°C 66% 3.9 mph NNE6.3 kmh NNE 15.0 mph24.1 kmh 29.95 in1014.2 mb 0.00 in0.0 mm 0.00 in0.0 mm 0.25 in6.4 mm
02:05 PM 83.2°F28.4°C 70.9°F21.6°C 66% 2.9 mph NW4.7 kmh NW 15.0 mph24.1 kmh 29.95 in1014.2 mb 0.00 in0.0 mm 0.00 in0.0 mm 0.25 in6.4 mm
02:10 PM 83.6°F28.7°C 71.3°F21.8°C 66% 2.0 mph NNW3.2 kmh NNW 10.0 mph16.1 kmh 29.95 in1014.2 mb 0.00 in0.0 mm 0.00 in0.0 mm 0.25 in6.4 mm
02:15 PM 83.5°F28.6°C 71.6°F22.0°C 67% 3.0 mph NNE4.8 kmh NNE 9.0 mph14.5 kmh 29.94 in1013.9 mb 0.00 in0.0 mm 0.00 in0.0 mm 0.25 in6.4 mm
02:20 PM 83.4°F28.6°C 71.3°F21.8°C 67% 2.2 mph N3.5 kmh N 8.0 mph12.9 kmh 29.94 in1013.9 mb 0.00 in0.0 mm 0.00 in0.0 mm 0.25 in6.4 mm
02:25 PM 83.9°F28.8°C 71.6°F22.0°C 66% 4.6 mph NE7.4 kmh NE 8.0 mph12.9 kmh 29.94 in1013.9 mb 0.00 in0.0 mm 0.00 in0.0 mm 0.25 in6.4 mm
02:30 PM 84.0°F28.9°C 71.7°F22.1°C 66% 1.0 mph NNE1.6 kmh NNE 8.0 mph12.9 kmh 29.93 in1013.5 mb 0.00 in0.0 mm 0.00 in0.0 mm 0.25 in6.4 mm
02:35 PM 83.9°F28.8°C 71.3°F21.8°C 66% 1.0 mph SE1.6 kmh SE 8.0 mph12.9 kmh 29.93 in1013.5 mb 0.00 in0.0 mm 0.00 in0.0 mm 0.25 in6.4 mm
02:40 PM 84.1°F28.9°C 71.3°F21.8°C 65% 1.9 mph N3.1 kmh N 8.0 mph12.9 kmh 29.93 in1013.5 mb 0.00 in0.0 mm 0.00 in0.0 mm 0.25 in6.4 mm
02:45 PM 84.7°F29.3°C 71.9°F22.2°C 65% 1.1 mph NE1.8 kmh NE 7.0 mph11.3 kmh 29.92 in1013.2 mb 0.00 in0.0 mm 0.00 in0.0 mm 0.25 in6.4 mm
02:50 PM 84.7°F29.3°C 71.4°F21.9°C 64% 1.8 mph NW2.9 kmh NW 7.0 mph11.3 kmh 29.92 in1013.2 mb 0.00 in0.0 mm 0.00 in0.0 mm 0.25 in6.4 mm
02:55 PM 84.5°F29.2°C 70.5°F21.4°C 63% 1.1 mph NNW1.8 kmh NNW 7.0 mph11.3 kmh 29.92 in1013.2 mb 0.00 in0.0 mm 0.00 in0.0 mm 0.25 in6.4 mm
03:00 PM 84.7°F29.3°C 71.6°F22.0°C 65% 1.0 mph NNE1.6 kmh NNE 3.0 mph4.8 kmh 29.92 in1013.2 mb 0.00 in0.0 mm 0.00 in0.0 mm 0.25 in6.4 mm
03:05 PM 85.3°F29.6°C 71.1°F21.7°C 62% 1.4 mph NNW2.3 kmh NNW 3.0 mph4.8 kmh 29.92 in1013.2 mb 0.00 in0.0 mm 0.00 in0.0 mm 0.25 in6.4 mm
03:10 PM 85.4°F29.7°C 70.7°F21.5°C 61% 3.9 mph NE6.3 kmh NE 6.0 mph9.7 kmh 29.91 in1012.9 mb 0.00 in0.0 mm 0.00 in0.0 mm 0.25 in6.4 mm
03:15 PM 84.9°F29.4°C 71.4°F21.9°C 64% 1.9 mph NE3.1 kmh NE 8.0 mph12.9 kmh 29.91 in1012.9 mb 0.00 in0.0 mm 0.00 in0.0 mm 0.25 in6.4 mm
03:20 PM 85.6°F29.8°C 70.9°F21.6°C 61% 2.2 mph NNE3.5 kmh NNE 8.0 mph12.9 kmh 29.91 in1012.9 mb 0.00 in0.0 mm 0.00 in0.0 mm 0.25 in6.4 mm
03:25 PM 85.2°F29.6°C 71.0°F21.7°C 62% 1.0 mph E1.6 kmh E 8.0 mph12.9 kmh 29.91 in1012.9 mb 0.00 in0.0 mm 0.00 in0.0 mm 0.25 in6.4 mm
03:30 PM 85.5°F29.7°C 71.3°F21.8°C 62% 1.4 mph NNW2.3 kmh NNW 6.0 mph9.7 kmh 29.91 in1012.9 mb 0.00 in0.0 mm 0.00 in0.0 mm 0.25 in6.4 mm
03:35 PM 86.0°F30.0°C 71.3°F21.8°C 61% 1.8 mph NW2.9 kmh NW 5.0 mph8.0 kmh 29.91 in1012.9 mb 0.00 in0.0 mm 0.00 in0.0 mm 0.25 in6.4 mm
03:40 PM 86.2°F30.1°C 70.5°F21.4°C 59% 2.0 mph NW3.2 kmh NW 5.0 mph8.0 kmh 29.91 in1012.9 mb 0.00 in0.0 mm 0.00 in0.0 mm 0.25 in6.4 mm
03:45 PM 86.2°F30.1°C 70.5°F21.4°C 59% 2.1 mph NW3.4 kmh NW 7.0 mph11.3 kmh 29.91 in1012.9 mb 0.00 in0.0 mm 0.00 in0.0 mm 0.25 in6.4 mm
03:50 PM 86.6°F30.3°C 71.3°F21.8°C 60% 1.1 mph NW1.8 kmh NW 7.0 mph11.3 kmh 29.91 in1012.9 mb 0.00 in0.0 mm 0.00 in0.0 mm 0.25 in6.4 mm
03:55 PM 87.2°F30.7°C 70.4°F21.3°C 57% 1.1 mph S1.8 kmh S 7.0 mph11.3 kmh 29.91 in1012.9 mb 0.00 in0.0 mm 0.00 in0.0 mm 0.25 in6.4 mm
04:00 PM 87.7°F30.9°C 70.6°F21.4°C 57% 1.2 mph SE1.9 kmh SE 7.0 mph11.3 kmh 29.91 in1012.9 mb 0.00 in0.0 mm 0.00 in0.0 mm 0.25 in6.4 mm
04:05 PM 87.9°F31.1°C 70.2°F21.2°C 56% 1.6 mph SE2.6 kmh SE 3.0 mph4.8 kmh 29.91 in1012.9 mb 0.00 in0.0 mm 0.00 in0.0 mm 0.25 in6.4 mm
04:10 PM 87.9°F31.1°C 71.0°F21.7°C 57% 1.4 mph W2.3 kmh W 4.0 mph6.4 kmh 29.91 in1012.9 mb 0.00 in0.0 mm 0.00 in0.0 mm 0.25 in6.4 mm
04:15 PM 88.0°F31.1°C 71.1°F21.7°C 57% 1.0 mph WSW1.6 kmh WSW 5.0 mph8.0 kmh 29.91 in1012.9 mb 0.00 in0.0 mm 0.00 in0.0 mm 0.25 in6.4 mm
04:20 PM 88.5°F31.4°C 71.6°F22.0°C 57% 1.0 mph WNW1.6 kmh WNW 5.0 mph8.0 kmh 29.91 in1012.9 mb 0.00 in0.0 mm 0.00 in0.0 mm 0.25 in6.4 mm
04:25 PM 88.6°F31.4°C 71.2°F21.8°C 56% 1.3 mph NW2.1 kmh NW 5.0 mph8.0 kmh 29.91 in1012.9 mb 0.00 in0.0 mm 0.00 in0.0 mm 0.25 in6.4 mm
04:30 PM 88.7°F31.5°C 70.5°F21.4°C 55% 1.0 mph SSE1.6 kmh SSE 5.0 mph8.0 kmh 29.91 in1012.9 mb 0.00 in0.0 mm 0.00 in0.0 mm 0.25 in6.4 mm
04:36 PM 88.4°F31.3°C 70.4°F21.3°C 55% 1.6 mph SW2.6 kmh SW 3.0 mph4.8 kmh 29.91 in1012.9 mb 0.00 in0.0 mm 0.00 in0.0 mm 0.25 in6.4 mm
04:40 PM 88.3°F31.3°C 70.3°F21.3°C 55% Calm Calm 3.0 mph4.8 kmh 29.91 in1012.9 mb 0.00 in0.0 mm 0.00 in0.0 mm 0.25 in6.4 mm
04:45 PM 88.6°F31.4°C 70.6°F21.4°C 55% 1.0 mph NNW1.6 kmh NNW 3.0 mph4.8 kmh 29.91 in1012.9 mb 0.00 in0.0 mm 0.00 in0.0 mm 0.25 in6.4 mm
04:51 PM 88.4°F31.3°C 70.2°F21.2°C 55% 1.4 mph W2.3 kmh W 3.0 mph4.8 kmh 29.91 in1012.9 mb 0.00 in0.0 mm 0.00 in0.0 mm 0.25 in6.4 mm
04:56 PM 88.4°F31.3°C 70.4°F21.3°C 55% 1.0 mph ESE1.6 kmh ESE 3.0 mph4.8 kmh 29.91 in1012.9 mb 0.00 in0.0 mm 0.00 in0.0 mm 0.25 in6.4 mm
05:01 PM 89.3°F31.8°C 70.7°F21.5°C 54% 1.0 mph NW1.6 kmh NW 3.0 mph4.8 kmh 29.91 in1012.9 mb 0.00 in0.0 mm 0.00 in0.0 mm 0.25 in6.4 mm
05:06 PM 89.9°F32.2°C 70.5°F21.4°C 53% 2.1 mph WNW3.4 kmh WNW 5.0 mph8.0 kmh 29.91 in1012.9 mb 0.00 in0.0 mm 0.00 in0.0 mm 0.25 in6.4 mm
05:10 PM 88.6°F31.4°C 70.6°F21.4°C 55% 1.0 mph W1.6 kmh W 5.0 mph8.0 kmh 29.90 in1012.5 mb 0.00 in0.0 mm 0.00 in0.0 mm 0.25 in6.4 mm
05:16 PM 87.8°F31.0°C 70.4°F21.3°C 56% 1.0 mph WSW1.6 kmh WSW 8.0 mph12.9 kmh 29.90 in1012.5 mb 0.00 in0.0 mm 0.00 in0.0 mm 0.25 in6.4 mm
05:21 PM 87.4°F30.8°C 69.3°F20.7°C 55% Calm Calm 8.0 mph12.9 kmh 29.90 in1012.5 mb 0.00 in0.0 mm 0.00 in0.0 mm 0.25 in6.4 mm
05:26 PM 87.0°F30.6°C 69.7°F20.9°C 56% 1.0 mph WSW1.6 kmh WSW 8.0 mph12.9 kmh 29.90 in1012.5 mb 0.00 in0.0 mm 0.00 in0.0 mm 0.25 in6.4 mm
05:29 PM 86.8°F30.4°C 69.5°F20.8°C 56% 1.0 mph E1.6 kmh E 8.0 mph12.9 kmh 29.90 in1012.5 mb 0.00 in0.0 mm 0.00 in0.0 mm 0.25 in6.4 mm
05:34 PM 86.6°F30.3°C 70.1°F21.2°C 58% 1.0 mph WSW1.6 kmh WSW 2.0 mph3.2 kmh 29.90 in1012.5 mb 0.00 in0.0 mm 0.00 in0.0 mm 0.25 in6.4 mm
05:39 PM 86.3°F30.2°C 70.0°F21.1°C 58% 1.5 mph W2.4 kmh W 4.0 mph6.4 kmh 29.90 in1012.5 mb 0.00 in0.0 mm 0.00 in0.0 mm 0.25 in6.4 mm
05:44 PM 86.1°F30.1°C 70.4°F21.3°C 59% 1.0 mph WSW1.6 kmh WSW 4.0 mph6.4 kmh 29.90 in1012.5 mb 0.00 in0.0 mm 0.00 in0.0 mm 0.25 in6.4 mm
05:49 PM 86.0°F30.0°C 70.8°F21.6°C 60% 1.4 mph SW2.3 kmh SW 4.0 mph6.4 kmh 29.89 in1012.2 mb 0.00 in0.0 mm 0.00 in0.0 mm 0.25 in6.4 mm
05:54 PM 85.8°F29.9°C 70.6°F21.4°C 60% 1.6 mph WSW2.6 kmh WSW 4.0 mph6.4 kmh 29.90 in1012.5 mb 0.00 in0.0 mm 0.00 in0.0 mm 0.25 in6.4 mm
05:59 PM 85.6°F29.8°C 70.4°F21.3°C 60% 1.5 mph W2.4 kmh W 4.0 mph6.4 kmh 29.90 in1012.5 mb 0.00 in0.0 mm 0.00 in0.0 mm 0.25 in6.4 mm
06:04 PM 85.6°F29.8°C 70.1°F21.2°C 60% Calm Calm 4.0 mph6.4 kmh 29.90 in1012.5 mb 0.00 in0.0 mm 0.00 in0.0 mm 0.25 in6.4 mm
06:09 PM 86.1°F30.1°C 70.4°F21.3°C 59% 1.6 mph NW2.6 kmh NW 4.0 mph6.4 kmh 29.90 in1012.5 mb 0.00 in0.0 mm 0.00 in0.0 mm 0.25 in6.4 mm
06:14 PM 86.3°F30.2°C 70.6°F21.4°C 59% 1.5 mph W2.4 kmh W 3.0 mph4.8 kmh 29.90 in1012.5 mb 0.00 in0.0 mm 0.00 in0.0 mm 0.25 in6.4 mm
06:19 PM 85.8°F29.9°C 71.1°F21.7°C 61% 1.6 mph NW2.6 kmh NW 4.0 mph6.4 kmh 29.90 in1012.5 mb 0.00 in0.0 mm 0.00 in0.0 mm 0.25 in6.4 mm
06:24 PM 85.6°F29.8°C 70.9°F21.6°C 61% 1.4 mph NW2.3 kmh NW 4.0 mph6.4 kmh 29.90 in1012.5 mb 0.00 in0.0 mm 0.00 in0.0 mm 0.25 in6.4 mm
06:29 PM 85.6°F29.8°C 71.6°F22.0°C 63% 1.2 mph NW1.9 kmh NW 4.0 mph6.4 kmh 29.90 in1012.5 mb 0.00 in0.0 mm 0.00 in0.0 mm 0.25 in6.4 mm
06:34 PM 85.4°F29.7°C 71.6°F22.0°C 63% 2.4 mph NW3.9 kmh NW 4.0 mph6.4 kmh 29.90 in1012.5 mb 0.00 in0.0 mm 0.00 in0.0 mm 0.25 in6.4 mm
06:39 PM 85.1°F29.5°C 71.8°F22.1°C 64% 1.5 mph NNW2.4 kmh NNW 4.0 mph6.4 kmh 29.90 in1012.5 mb 0.00 in0.0 mm 0.00 in0.0 mm 0.25 in6.4 mm
06:44 PM 84.9°F29.4°C 72.1°F22.3°C 65% 3.3 mph NE5.3 kmh NE 5.0 mph8.0 kmh 29.90 in1012.5 mb 0.00 in0.0 mm 0.00 in0.0 mm 0.25 in6.4 mm
06:49 PM 84.0°F28.9°C 72.6°F22.6°C 68% 4.4 mph NE7.1 kmh NE 6.0 mph9.7 kmh 29.90 in1012.5 mb 0.00 in0.0 mm 0.00 in0.0 mm 0.25 in6.4 mm
06:54 PM 83.3°F28.5°C 72.3°F22.4°C 69% 2.8 mph NE4.5 kmh NE 6.0 mph9.7 kmh 29.90 in1012.5 mb 0.00 in0.0 mm 0.00 in0.0 mm 0.25 in6.4 mm
06:59 PM 83.0°F28.3°C 72.4°F22.4°C 70% 1.3 mph NE2.1 kmh NE 6.0 mph9.7 kmh 29.91 in1012.9 mb 0.00 in0.0 mm 0.00 in0.0 mm 0.25 in6.4 mm
07:05 PM 82.7°F28.2°C 72.2°F22.3°C 70% 1.5 mph NE2.4 kmh NE 6.0 mph9.7 kmh 29.91 in1012.9 mb 0.00 in0.0 mm 0.00 in0.0 mm 0.25 in6.4 mm
07:10 PM 82.6°F28.1°C 71.8°F22.1°C 70% 1.0 mph NE1.6 kmh NE 6.0 mph9.7 kmh 29.91 in1012.9 mb 0.00 in0.0 mm 0.00 in0.0 mm 0.25 in6.4 mm
07:14 PM 82.5°F28.1°C 72.0°F22.2°C 70% 1.0 mph ESE1.6 kmh ESE 4.0 mph6.4 kmh 29.91 in1012.9 mb 0.00 in0.0 mm 0.00 in0.0 mm 0.25 in6.4 mm
07:20 PM 82.3°F27.9°C 72.2°F22.3°C 71% 1.0 mph ESE1.6 kmh ESE 2.0 mph3.2 kmh 29.91 in1012.9 mb 0.00 in0.0 mm 0.00 in0.0 mm 0.25 in6.4 mm
07:25 PM 82.2°F27.9°C 71.7°F22.1°C 70% Calm Calm 1.0 mph1.6 kmh 29.91 in1012.9 mb 0.00 in0.0 mm 0.00 in0.0 mm 0.25 in6.4 mm
07:30 PM 82.1°F27.8°C 72.0°F22.2°C 71% Calm Calm 1.0 mph1.6 kmh 29.91 in1012.9 mb 0.00 in0.0 mm 0.00 in0.0 mm 0.25 in6.4 mm
07:35 PM 81.9°F27.7°C 71.8°F22.1°C 71% 1.0 mph E1.6 kmh E 1.0 mph1.6 kmh 29.91 in1012.9 mb 0.00 in0.0 mm 0.00 in0.0 mm 0.25 in6.4 mm
07:40 PM 81.8°F27.7°C 72.1°F22.3°C 72% Calm Calm 1.0 mph1.6 kmh 29.91 in1012.9 mb 0.00 in0.0 mm 0.00 in0.0 mm 0.25 in6.4 mm
07:45 PM 81.8°F27.7°C 72.1°F22.3°C 72% 1.0 mph NE1.6 kmh NE 3.0 mph4.8 kmh 29.92 in1013.2 mb 0.00 in0.0 mm 0.00 in0.0 mm 0.25 in6.4 mm
07:49 PM 81.6°F27.6°C 71.9°F22.2°C 72% Calm Calm 3.0 mph4.8 kmh 29.92 in1013.2 mb 0.00 in0.0 mm 0.00 in0.0 mm 0.25 in6.4 mm
07:55 PM 81.4°F27.4°C 72.1°F22.3°C 73% Calm Calm 3.0 mph4.8 kmh 29.92 in1013.2 mb 0.00 in0.0 mm 0.00 in0.0 mm 0.25 in6.4 mm
08:00 PM 81.2°F27.3°C 72.3°F22.4°C 74% 1.0 mph ESE1.6 kmh ESE 3.0 mph4.8 kmh 29.92 in1013.2 mb 0.00 in0.0 mm 0.00 in0.0 mm 0.25 in6.4 mm
08:05 PM 81.0°F27.2°C 72.5°F22.5°C 75% 1.0 mph SE1.6 kmh SE 1.0 mph1.6 kmh 29.93 in1013.5 mb 0.00 in0.0 mm 0.00 in0.0 mm 0.25 in6.4 mm
08:10 PM 80.7°F27.1°C 72.2°F22.3°C 75% 1.0 mph ESE1.6 kmh ESE 1.0 mph1.6 kmh 29.93 in1013.5 mb 0.00 in0.0 mm 0.00 in0.0 mm 0.25 in6.4 mm
08:15 PM 80.7°F27.1°C 72.6°F22.6°C 76% 1.0 mph ESE1.6 kmh ESE 1.0 mph1.6 kmh 29.93 in1013.5 mb 0.00 in0.0 mm 0.00 in0.0 mm 0.25 in6.4 mm
08:20 PM 80.7°F27.1°C 72.6°F22.6°C 76% 1.0 mph E1.6 kmh E 1.0 mph1.6 kmh 29.93 in1013.5 mb 0.00 in0.0 mm 0.00 in0.0 mm 0.25 in6.4 mm
08:25 PM 80.7°F27.1°C 72.6°F22.6°C 76% Calm Calm 1.0 mph1.6 kmh 29.93 in1013.5 mb 0.00 in0.0 mm 0.00 in0.0 mm 0.25 in6.4 mm
08:30 PM 80.6°F27.0°C 72.1°F22.3°C 75% 1.0 mph SE1.6 kmh SE 1.0 mph1.6 kmh 29.93 in1013.5 mb 0.00 in0.0 mm 0.00 in0.0 mm 0.25 in6.4 mm
08:35 PM 80.5°F26.9°C 71.4°F21.9°C 74% 1.7 mph E2.7 kmh E 3.0 mph4.8 kmh 29.93 in1013.5 mb 0.00 in0.0 mm 0.00 in0.0 mm 0.25 in6.4 mm
08:40 PM 80.6°F27.0°C 71.7°F22.1°C 74% 1.4 mph SE2.3 kmh SE 3.0 mph4.8 kmh 29.93 in1013.5 mb 0.00 in0.0 mm 0.00 in0.0 mm 0.25 in6.4 mm
08:45 PM 80.4°F26.9°C 71.5°F21.9°C 74% 1.0 mph SE1.6 kmh SE 3.0 mph4.8 kmh 29.93 in1013.5 mb 0.00 in0.0 mm 0.00 in0.0 mm 0.25 in6.4 mm
08:50 PM 80.4°F26.9°C 71.5°F21.9°C 74% Calm Calm 3.0 mph4.8 kmh 29.93 in1013.5 mb 0.00 in0.0 mm 0.00 in0.0 mm 0.25 in6.4 mm
08:55 PM 80.4°F26.9°C 71.9°F22.2°C 75% Calm Calm 2.0 mph3.2 kmh 29.93 in1013.5 mb 0.00 in0.0 mm 0.00 in0.0 mm 0.25 in6.4 mm
09:00 PM 80.3°F26.8°C 71.8°F22.1°C 75% 1.0 mph E1.6 kmh E 1.0 mph1.6 kmh 29.94 in1013.9 mb 0.00 in0.0 mm 0.00 in0.0 mm 0.25 in6.4 mm
09:05 PM 80.2°F26.8°C 71.7°F22.1°C 75% Calm Calm 1.0 mph1.6 kmh 29.94 in1013.9 mb 0.00 in0.0 mm 0.00 in0.0 mm 0.25 in6.4 mm
09:10 PM 80.0°F26.7°C 71.9°F22.2°C 76% Calm Calm 1.0 mph1.6 kmh 29.94 in1013.9 mb 0.00 in0.0 mm 0.00 in0.0 mm 0.25 in6.4 mm
09:15 PM 79.9°F26.6°C 72.0°F22.2°C 77% Calm Calm 1.0 mph1.6 kmh 29.94 in1013.9 mb 0.00 in0.0 mm 0.00 in0.0 mm 0.25 in6.4 mm
09:20 PM 79.7°F26.5°C 72.4°F22.4°C 78% Calm Calm -- 29.94 in1013.9 mb 0.00 in0.0 mm 0.00 in0.0 mm 0.25 in6.4 mm
09:25 PM 79.6°F26.4°C 72.3°F22.4°C 78% Calm Calm -- 29.94 in1013.9 mb 0.00 in0.0 mm 0.00 in0.0 mm 0.25 in6.4 mm
09:30 PM 79.4°F26.3°C 72.4°F22.4°C 79% Calm Calm -- 29.95 in1014.2 mb 0.00 in0.0 mm 0.00 in0.0 mm 0.25 in6.4 mm
09:35 PM 79.2°F26.2°C 72.2°F22.3°C 79% Calm Calm -- 29.95 in1014.2 mb 0.00 in0.0 mm 0.00 in0.0 mm 0.25 in6.4 mm
09:40 PM 79.0°F26.1°C 71.9°F22.2°C 79% Calm Calm -- 29.95 in1014.2 mb 0.00 in0.0 mm 0.00 in0.0 mm 0.25 in6.4 mm
09:45 PM 78.7°F25.9°C 72.0°F22.2°C 80% Calm Calm -- 29.95 in1014.2 mb 0.00 in0.0 mm 0.00 in0.0 mm 0.25 in6.4 mm
09:50 PM 78.5°F25.8°C 71.9°F22.2°C 80% Calm Calm -- 29.95 in1014.2 mb 0.00 in0.0 mm 0.00 in0.0 mm 0.25 in6.4 mm
09:55 PM 78.4°F25.8°C 71.8°F22.1°C 80% Calm Calm -- 29.95 in1014.2 mb 0.00 in0.0 mm 0.00 in0.0 mm 0.25 in6.4 mm
10:00 PM 78.4°F25.8°C 72.2°F22.3°C 81% Calm Calm -- 29.95 in1014.2 mb 0.00 in0.0 mm 0.00 in0.0 mm 0.25 in6.4 mm
10:05 PM 78.2°F25.7°C 71.9°F22.2°C 81% Calm Calm -- 29.95 in1014.2 mb 0.00 in0.0 mm 0.00 in0.0 mm 0.25 in6.4 mm
10:10 PM 78.1°F25.6°C 71.9°F22.2°C 81% Calm Calm -- 29.95 in1014.2 mb 0.00 in0.0 mm 0.00 in0.0 mm 0.25 in6.4 mm
10:15 PM 78.0°F25.6°C 72.1°F22.3°C 82% Calm Calm -- 29.95 in1014.2 mb 0.00 in0.0 mm 0.00 in0.0 mm 0.25 in6.4 mm
10:20 PM 77.8°F25.4°C 71.9°F22.2°C 82% Calm Calm -- 29.95 in1014.2 mb 0.00 in0.0 mm 0.00 in0.0 mm 0.25 in6.4 mm
10:24 PM 77.7°F25.4°C 71.8°F22.1°C 82% Calm Calm -- 29.95 in1014.2 mb 0.00 in0.0 mm 0.00 in0.0 mm 0.25 in6.4 mm
10:29 PM 77.7°F25.4°C 71.8°F22.1°C 82% Calm Calm -- 29.95 in1014.2 mb 0.00 in0.0 mm 0.00 in0.0 mm 0.25 in6.4 mm
10:34 PM 77.7°F25.4°C 71.8°F22.1°C 82% Calm Calm -- 29.95 in1014.2 mb 0.00 in0.0 mm 0.00 in0.0 mm 0.25 in6.4 mm
10:39 PM 77.5°F25.3°C 71.9°F22.2°C 83% Calm Calm -- 29.95 in1014.2 mb 0.00 in0.0 mm 0.00 in0.0 mm 0.25 in6.4 mm
10:44 PM 77.5°F25.3°C 72.0°F22.2°C 83% Calm Calm -- 29.95 in1014.2 mb 0.00 in0.0 mm 0.00 in0.0 mm 0.25 in6.4 mm
10:49 PM 77.5°F25.3°C 72.0°F22.2°C 83% Calm Calm -- 29.95 in1014.2 mb 0.00 in0.0 mm 0.00 in0.0 mm 0.25 in6.4 mm
10:54 PM 77.5°F25.3°C 72.0°F22.2°C 83% Calm Calm -- 29.95 in1014.2 mb 0.00 in0.0 mm 0.00 in0.0 mm 0.25 in6.4 mm
10:59 PM 77.4°F25.2°C 71.9°F22.2°C 83% Calm Calm -- 29.95 in1014.2 mb 0.00 in0.0 mm 0.00 in0.0 mm 0.25 in6.4 mm
11:04 PM 77.4°F25.2°C 72.2°F22.3°C 84% Calm Calm -- 29.95 in1014.2 mb 0.00 in0.0 mm 0.00 in0.0 mm 0.25 in6.4 mm
11:09 PM 77.3°F25.2°C 72.1°F22.3°C 84% Calm Calm -- 29.96 in1014.6 mb 0.00 in0.0 mm 0.00 in0.0 mm 0.24 in6.1 mm
11:14 PM 77.3°F25.2°C 72.1°F22.3°C 84% Calm Calm -- 29.96 in1014.6 mb 0.00 in0.0 mm 0.00 in0.0 mm 0.24 in6.1 mm
11:19 PM 77.3°F25.2°C 72.5°F22.5°C 85% Calm Calm -- 29.96 in1014.6 mb 0.00 in0.0 mm 0.00 in0.0 mm 0.24 in6.1 mm
11:24 PM 77.3°F25.2°C 72.5°F22.5°C 85% Calm Calm -- 29.96 in1014.6 mb 0.00 in0.0 mm 0.00 in0.0 mm 0.24 in6.1 mm
11:29 PM 77.2°F25.1°C 72.4°F22.4°C 85% Calm Calm -- 29.95 in1014.2 mb 0.00 in0.0 mm 0.00 in0.0 mm 0.24 in6.1 mm
11:34 PM 77.1°F25.1°C 72.3°F22.4°C 85% Calm Calm -- 29.95 in1014.2 mb 0.00 in0.0 mm 0.00 in0.0 mm 0.24 in6.1 mm
11:39 PM 77.0°F25.0°C 72.5°F22.5°C 86% Calm Calm -- 29.95 in1014.2 mb 0.00 in0.0 mm 0.00 in0.0 mm 0.24 in6.1 mm
11:44 PM 76.8°F24.9°C 72.3°F22.4°C 86% Calm Calm -- 29.95 in1014.2 mb 0.00 in0.0 mm 0.00 in0.0 mm 0.24 in6.1 mm
11:49 PM 76.6°F24.8°C 72.5°F22.5°C 87% Calm Calm -- 29.95 in1014.2 mb 0.00 in0.0 mm 0.00 in0.0 mm 0.24 in6.1 mm
11:54 PM 76.4°F24.7°C 72.6°F22.6°C 88% Calm Calm -- 29.95 in1014.2 mb 0.00 in0.0 mm 0.00 in0.0 mm 0.24 in6.1 mm
11:59 PM 76.1°F24.5°C 72.3°F22.4°C 88% 1.0 mph SW1.6 kmh SW 1.0 mph1.6 kmh 29.95 in1014.2 mb 0.00 in0.0 mm 0.00 in0.0 mm 0.24 in6.1 mm